Time;durP1;ratioP1;P1;durP2;ratioP2;P2;SDS_P1;SDS_P2;PMS_P1;PMS_P2;Temp;Humidity;BMP_temperature;BMP_pressure;BME280_temperature;BME280_humidity;BME280_pressure;Samples;Min_cycle;Max_cycle;Signal;HPM_P1;HPM_P2
2022/11/26 00:04:47;;;;;;;9.50;3.85;;;9.60;99.90;;;;;;10418839;28;20034;-61
2022/11/26 00:09:48;;;;;;;7.70;3.85;;;9.60;99.90;;;;;;10425721;28;20052;-61
2022/11/26 00:14:50;;;;;;;8.30;3.85;;;9.60;99.90;;;;;;10425871;28;20508;-62
2022/11/26 00:19:50;;;;;;;6.60;3.58;;;9.60;99.90;;;;;;10423097;28;20025;-64
2022/11/26 00:24:52;;;;;;;5.05;3.20;;;9.60;99.90;;;;;;10426346;28;20053;-61
2022/11/26 00:29:53;;;;;;;5.55;3.45;;;9.60;99.90;;;;;;10425563;28;20040;-64
2022/11/26 00:34:54;;;;;;;8.23;3.33;;;9.60;99.90;;;;;;10422225;28;20501;-64
2022/11/26 00:39:56;;;;;;;9.00;3.50;;;9.60;99.90;;;;;;10425428;28;20017;-62
2022/11/26 00:44:57;;;;;;;6.10;3.20;;;9.50;99.90;;;;;;10421447;28;20072;-61
2022/11/26 00:49:57;;;;;;;7.95;3.95;;;9.50;99.90;;;;;;10422194;28;20057;-64
2022/11/26 00:54:59;;;;;;;8.00;3.97;;;9.50;99.90;;;;;;10421333;28;20043;-61
2022/11/26 00:59:59;;;;;;;7.85;3.38;;;9.50;99.90;;;;;;10426790;28;20021;-64
2022/11/26 01:05:00;;;;;;;7.65;3.65;;;9.50;99.90;;;;;;10416180;28;20876;-61
2022/11/26 01:10:01;;;;;;;9.95;4.47;;;9.50;99.90;;;;;;10423581;28;20021;-61
2022/11/26 01:15:01;;;;;;;7.07;3.15;;;9.50;99.90;;;;;;10418687;28;20555;-61
2022/11/26 01:20:03;;;;;;;9.80;3.25;;;9.40;99.90;;;;;;10425720;28;20041;-62
2022/11/26 01:25:04;;;;;;;6.50;3.55;;;9.40;99.90;;;;;;10424438;28;20049;-61
2022/11/26 01:30:13;;;;;;;9.80;3.83;;;9.40;99.90;;;;;;10417407;28;20021;-62
2022/11/26 01:35:15;;;;;;;7.90;3.65;;;9.40;99.90;;;;;;10419790;28;20021;-61
2022/11/26 01:40:24;;;;;;;9.02;3.58;;;9.40;99.90;;;;;;10413160;28;20022;-61
2022/11/26 01:45:26;;;;;;;8.60;3.30;;;9.40;99.90;;;;;;10427822;28;20532;-60
2022/11/26 01:50:29;;;;;;;8.73;3.42;;;9.40;99.90;;;;;;10417171;28;20040;-61
2022/11/26 01:55:37;;;;;;;6.10;3.20;;;9.40;99.90;;;;;;10421650;28;20095;-62
2022/11/26 02:00:38;;;;;;;6.18;3.03;;;9.30;99.90;;;;;;10425095;28;20025;-61
2022/11/26 02:05:47;;;;;;;6.88;3.25;;;9.30;99.90;;;;;;10427055;28;20029;-63
2022/11/26 02:10:49;;;;;;;;;;;9.30;99.90;;;;;;10424659;28;20032;-62
2022/11/26 02:16:15;;;;;;;6.97;3.60;;;9.30;99.90;;;;;;10420700;28;19939;-64
2022/11/26 02:21:26;;;;;;;8.80;3.25;;;9.30;99.90;;;;;;10419854;28;20029;-64
2022/11/26 02:26:48;;;;;;;7.13;3.47;;;9.30;99.90;;;;;;10432319;28;20536;-63
2022/11/26 02:32:12;;;;;;;6.78;3.25;;;9.30;99.90;;;;;;10425286;28;20575;-63
2022/11/26 02:37:19;;;;;;;4.90;3.00;;;9.30;99.90;;;;;;10424297;28;20381;-62
2022/11/26 02:42:28;;;;;;;6.40;2.97;;;9.50;99.90;;;;;;10430632;28;20041;-62
2022/11/26 02:47:31;;;;;;;9.13;3.38;;;9.30;99.90;;;;;;10426735;28;20551;-64
2022/11/26 02:52:34;;;;;;;6.18;2.95;;;9.30;99.90;;;;;;10425651;28;20037;-64
2022/11/26 02:57:41;;;;;;;7.70;3.25;;;9.20;99.90;;;;;;10434867;28;20446;-63
2022/11/26 03:02:53;;;;;;;8.32;3.15;;;9.20;99.90;;;;;;10416418;28;20040;-64
2022/11/26 03:07:54;;;;;;;7.55;2.95;;;9.30;99.90;;;;;;10428565;28;20036;-64
2022/11/26 03:12:55;;;;;;;5.55;2.67;;;9.20;99.90;;;;;;10430736;28;20525;-64
2022/11/26 03:17:56;;;;;;;5.45;2.92;;;9.20;99.90;;;;;;10426119;28;20029;-62
2022/11/26 03:22:56;;;;;;;8.70;3.22;;;9.20;99.90;;;;;;10426592;28;20505;-64
2022/11/26 03:27:57;;;;;;;7.00;2.88;;;9.20;99.90;;;;;;10422835;28;20037;-61
2022/11/26 03:32:58;;;;;;;6.05;2.60;;;9.20;99.90;;;;;;10418063;28;20437;-64
2022/11/26 03:37:59;;;;;;;8.10;2.72;;;9.20;99.90;;;;;;10422971;28;20029;-64
2022/11/26 03:42:59;;;;;;;6.28;2.75;;;9.20;99.90;;;;;;10418985;28;20033;-64
2022/11/26 03:48:00;;;;;;;8.90;3.60;;;9.10;99.90;;;;;;10420853;28;20114;-64
2022/11/26 03:53:01;;;;;;;5.30;2.47;;;9.10;99.90;;;;;;10426347;28;20387;-61
2022/11/26 03:58:01;;;;;;;6.05;3.10;;;9.10;99.90;;;;;;10427627;28;20706;-64
2022/11/26 04:03:02;;;;;;;7.30;2.75;;;9.10;99.90;;;;;;10399526;28;20041;-64
2022/11/26 04:08:03;;;;;;;6.82;2.63;;;9.10;99.90;;;;;;10424771;28;20091;-61
2022/11/26 04:13:04;;;;;;;6.22;2.83;;;9.10;99.90;;;;;;10425955;28;20420;-63
2022/11/26 04:18:04;;;;;;;6.22;2.78;;;9.10;99.90;;;;;;10405033;28;20037;-61
2022/11/26 04:23:05;;;;;;;7.57;2.55;;;9.10;99.90;;;;;;10426869;28;20148;-61
2022/11/26 04:28:06;;;;;;;6.72;2.72;;;9.10;99.90;;;;;;10430526;28;20505;-64
2022/11/26 04:33:07;;;;;;;6.90;3.00;;;9.10;99.90;;;;;;10426173;28;20068;-61
2022/11/26 04:38:08;;;;;;;8.27;3.08;;;9.10;99.90;;;;;;10412469;28;20040;-60
2022/11/26 04:43:08;;;;;;;6.57;2.10;;;9.00;99.90;;;;;;10408135;28;20061;-61
2022/11/26 04:48:09;;;;;;;6.05;3.03;;;9.00;99.90;;;;;;10429941;28;20071;-61
2022/11/26 04:53:10;;;;;;;7.63;2.60;;;9.00;99.90;;;;;;10424397;28;20029;-63
2022/11/26 04:58:10;;;;;;;5.75;2.40;;;9.00;99.90;;;;;;10426239;28;20032;-61
2022/11/26 05:03:12;;;;;;;5.35;2.60;;;9.00;99.90;;;;;;10413676;28;20033;-63
2022/11/26 05:08:13;;;;;;;6.35;2.70;;;9.00;99.90;;;;;;10416291;28;20029;-64
2022/11/26 05:13:13;;;;;;;5.30;2.45;;;9.00;99.90;;;;;;10407790;28;20018;-63
2022/11/26 05:18:15;;;;;;;5.78;2.80;;;9.00;99.90;;;;;;10412847;28;20021;-62
2022/11/26 05:23:15;;;;;;;7.93;2.60;;;9.00;99.90;;;;;;10421580;28;20033;-63
2022/11/26 05:28:16;;;;;;;5.93;2.72;;;8.90;99.90;;;;;;10426314;28;20482;-64
2022/11/26 05:33:17;;;;;;;4.57;2.55;;;8.90;99.90;;;;;;10424059;28;20382;-64
2022/11/26 05:38:18;;;;;;;6.13;2.70;;;8.90;99.90;;;;;;10416888;28;20021;-64
2022/11/26 05:43:19;;;;;;;5.07;2.95;;;9.00;99.90;;;;;;10421536;28;20041;-62
2022/11/26 05:48:20;;;;;;;8.93;2.67;;;8.90;99.90;;;;;;10427598;28;20021;-64
2022/11/26 05:53:20;;;;;;;6.38;2.60;;;9.30;99.90;;;;;;10420946;28;20029;-62
2022/11/26 05:58:21;;;;;;;6.03;3.10;;;8.90;99.90;;;;;;10423200;28;20026;-62
2022/11/26 06:03:22;;;;;;;4.88;2.70;;;8.90;99.90;;;;;;10415046;28;20528;-62
2022/11/26 06:08:23;;;;;;;4.05;2.63;;;8.80;99.90;;;;;;10422511;28;20437;-63
2022/11/26 06:13:24;;;;;;;8.13;2.95;;;8.80;99.90;;;;;;10422201;28;20503;-61
2022/11/26 06:18:24;;;;;;;5.07;2.70;;;8.80;99.90;;;;;;10422549;28;20053;-63
2022/11/26 06:23:25;;;;;;;5.78;2.80;;;8.80;99.90;;;;;;10424913;28;20049;-61
2022/11/26 06:28:26;;;;;;;5.03;2.55;;;8.80;99.90;;;;;;10435376;28;20029;-62
2022/11/26 06:33:27;;;;;;;4.88;2.72;;;9.00;99.90;;;;;;10431341;28;20087;-62
2022/11/26 06:38:28;;;;;;;7.00;3.15;;;8.80;99.90;;;;;;10427180;28;20040;-63
2022/11/26 06:43:29;;;;;;;6.85;2.78;;;8.80;99.90;;;;;;10430815;28;20120;-61
2022/11/26 06:48:30;;;;;;;8.18;3.10;;;8.80;99.90;;;;;;10431089;28;20024;-62
2022/11/26 06:53:31;;;;;;;5.10;3.00;;;8.80;99.90;;;;;;10429509;28;20017;-62
2022/11/26 06:58:32;;;;;;;4.00;2.50;;;8.70;99.90;;;;;;10427817;28;20097;-61
2022/11/26 07:03:33;;;;;;;9.80;3.00;;;8.70;99.90;;;;;;10404855;28;20036;-61
2022/11/26 07:08:34;;;;;;;5.75;2.97;;;8.70;99.90;;;;;;10410511;28;20044;-65
2022/11/26 07:13:35;;;;;;;5.95;3.33;;;8.70;99.90;;;;;;10421771;28;20152;-62
2022/11/26 07:18:36;;;;;;;7.15;2.50;;;8.70;99.90;;;;;;10419961;28;20032;-61
2022/11/26 07:23:37;;;;;;;5.47;2.85;;;8.70;99.90;;;;;;10415332;28;20053;-61
2022/11/26 07:28:38;;;;;;;6.80;2.78;;;8.70;99.90;;;;;;10361957;28;20504;-62
2022/11/26 07:33:39;;;;;;;5.82;2.80;;;8.70;99.90;;;;;;10313723;28;20467;-61
2022/11/26 07:38:40;;;;;;;10.75;3.25;;;8.70;99.90;;;;;;10322787;28;20029;-62
2022/11/26 07:43:42;;;;;;;8.77;3.65;;;8.70;99.90;;;;;;10329333;28;20047;-61
2022/11/26 07:48:43;;;;;;;8.27;3.03;;;8.70;99.90;;;;;;10324599;28;20565;-62
2022/11/26 07:53:44;;;;;;;6.70;3.25;;;8.70;99.90;;;;;;10324471;28;20036;-60
2022/11/26 07:58:45;;;;;;;4.80;3.05;;;8.60;99.90;;;;;;10326497;28;20624;-60
2022/11/26 08:03:48;;;;;;;9.15;2.97;;;8.70;99.90;;;;;;10305758;28;20098;-61
2022/11/26 08:08:49;;;;;;;10.02;3.58;;;8.70;99.90;;;;;;10333739;28;20071;-61
2022/11/26 08:13:59;;;;;;;6.80;2.85;;;9.60;99.90;;;;;;10330284;28;20130;-61
2022/11/26 08:19:03;;;;;;;4.80;3.22;;;8.70;99.90;;;;;;10338703;28;20071;-60
2022/11/26 08:24:05;;;;;;;8.57;3.65;;;8.80;99.90;;;;;;10333919;28;20057;-62
2022/11/26 08:29:06;;;;;;;7.35;3.40;;;8.80;99.90;;;;;;10338433;28;20051;-61
2022/11/26 08:34:10;;;;;;;6.63;2.80;;;8.80;99.90;;;;;;10317071;28;20029;-61
2022/11/26 08:39:16;;;;;;;8.93;4.20;;;8.80;99.90;;;;;;10319495;28;20478;-66
2022/11/26 08:44:18;;;;;;;7.25;3.35;;;8.80;99.90;;;;;;10327376;28;20144;-61
2022/11/26 08:49:18;;;;;;;6.82;3.72;;;9.00;99.90;;;;;;10331089;28;20399;-61
2022/11/26 08:54:19;;;;;;;9.43;3.50;;;8.80;99.90;;;;;;10336862;28;20536;-62
2022/11/26 08:59:23;;;;;;;10.75;4.45;;;8.80;99.90;;;;;;10322208;28;20461;-66
2022/11/26 09:04:23;;;;;;;10.25;4.07;;;8.90;99.90;;;;;;10320045;28;20207;-62
2022/11/26 09:09:24;;;;;;;7.90;3.50;;;8.90;99.90;;;;;;10338945;28;20083;-60
2022/11/26 09:14:33;;;;;;;12.60;4.93;;;8.90;99.90;;;;;;10333311;28;20836;-62
2022/11/26 09:19:34;;;;;;;6.55;3.58;;;8.90;99.90;;;;;;10333433;28;20028;-65
2022/11/26 09:24:35;;;;;;;9.07;3.50;;;9.00;99.90;;;;;;10324504;28;20065;-62
2022/11/26 09:29:36;;;;;;;14.20;3.97;;;8.90;99.90;;;;;;10330058;28;20576;-66
2022/11/26 09:34:37;;;;;;;10.25;3.50;;;9.00;99.90;;;;;;10317897;28;20361;-61
2022/11/26 09:39:37;;;;;;;7.15;3.47;;;9.10;99.90;;;;;;10333825;28;20923;-60
2022/11/26 09:44:59;;;;;;;9.32;3.47;;;9.10;99.90;;;;;;10333389;28;20424;-60
2022/11/26 09:50:19;;;;;;;11.15;5.18;;;9.10;99.90;;;;;;10329404;28;20056;-60
2022/11/26 09:55:26;;;;;;;13.57;5.32;;;9.10;99.90;;;;;;10323208;28;20022;-59
2022/11/26 10:00:32;;;;;;;18.80;6.18;;;9.00;99.90;;;;;;10333085;28;20045;-67
2022/11/26 10:05:47;;;;;;;20.52;6.03;;;8.90;99.90;;;;;;10345284;28;20045;-61
2022/11/26 10:11:04;;;;;;;13.48;6.38;;;8.90;99.90;;;;;;10351465;28;20837;-62
2022/11/26 10:16:22;;;;;;;16.08;6.20;;;9.00;99.90;;;;;;10349238;28;20576;-62
2022/11/26 10:21:36;;;;;;;14.27;5.78;;;9.00;99.90;;;;;;10339142;28;20986;-67
2022/11/26 10:26:38;;;;;;;16.00;5.85;;;9.10;99.90;;;;;;10333151;28;20600;-60
2022/11/26 10:31:41;;;;;;;13.95;5.20;;;9.80;99.90;;;;;;10336919;28;20377;-63
2022/11/26 10:36:44;;;;;;;16.10;5.30;;;9.10;99.90;;;;;;10326605;28;20084;-61
2022/11/26 10:41:46;;;;;;;9.18;5.25;;;9.20;99.90;;;;;;10339449;28;20367;-60
2022/11/26 10:46:47;;;;;;;12.10;5.25;;;9.20;99.90;;;;;;10338611;28;20665;-61
2022/11/26 10:51:49;;;;;;;10.93;4.88;;;9.20;99.90;;;;;;10336252;28;20108;-61
2022/11/26 10:56:52;;;;;;;10.73;5.07;;;9.20;99.90;;;;;;10335734;28;20029;-60
2022/11/26 11:01:54;;;;;;;12.50;5.38;;;9.30;99.90;;;;;;10327598;28;20445;-60
2022/11/26 11:06:55;;;;;;;11.15;5.20;;;9.30;99.90;;;;;;10336892;28;20493;-61
2022/11/26 11:12:17;;;;;;;10.90;5.60;;;9.30;99.90;;;;;;10331748;28;20052;-62
2022/11/26 11:17:30;;;;;;;12.02;5.55;;;9.30;99.90;;;;;;10314915;28;20060;-61
2022/11/26 11:22:31;;;;;;;15.73;5.35;;;9.30;99.90;;;;;;10338997;28;20115;-65
2022/11/26 11:27:40;;;;;;;8.60;4.68;;;9.30;99.90;;;;;;10333584;28;20056;-67
2022/11/26 11:32:41;;;;;;;11.98;5.55;;;9.40;99.90;;;;;;10336771;28;20103;-60
2022/11/26 11:37:52;;;;;;;9.43;4.88;;;9.40;99.90;;;;;;10338734;28;20029;-61
2022/11/26 11:43:05;;;;;;;11.38;4.72;;;9.40;99.90;;;;;;10338698;28;20898;-61
2022/11/26 11:48:31;;;;;;;12.63;4.70;;;9.40;99.90;;;;;;10327896;28;20555;-68
2022/11/26 11:53:58;;;;;;;10.43;5.07;;;9.40;99.90;;;;;;10328910;28;20908;-62
2022/11/26 11:59:18;;;;;;;12.00;5.38;;;9.50;99.90;;;;;;10330890;28;20091;-61
2022/11/26 12:05:10;;;;;;;10.32;4.38;;;9.50;99.90;;;;;;10326425;28;20072;-61
2022/11/26 12:10:37;;;;;;;14.35;5.05;;;9.50;99.90;;;;;;10300448;28;20477;-68
2022/11/26 12:15:50;;;;;;;8.57;4.22;;;9.50;99.90;;;;;;10309603;28;20354;-61
2022/11/26 12:21:13;;;;;;;14.55;5.50;;;9.50;99.90;;;;;;10326673;28;20056;-61
2022/11/26 12:26:29;;;;;;;16.02;5.70;;;9.50;99.90;;;;;;10321842;28;20255;-67
2022/11/26 12:31:50;;;;;;;11.35;5.75;;;8.90;99.90;;;;;;10334174;28;20025;-61
2022/11/26 12:36:56;;;;;;;18.27;6.13;;;9.60;99.90;;;;;;10331501;28;20028;-62
2022/11/26 12:42:06;;;;;;;16.85;7.20;;;9.70;99.90;;;;;;10340980;28;20025;-61
2022/11/26 12:47:29;;;;;;;20.40;7.18;;;9.60;99.90;;;;;;10327987;28;20045;-66
2022/11/26 12:52:37;;;;;;;18.08;6.60;;;9.50;99.90;;;;;;10327122;28;20485;-61
2022/11/26 12:57:54;;;;;;;17.65;7.00;;;9.60;99.90;;;;;;10333543;28;20120;-61
2022/11/26 13:02:55;;;;;;;21.35;7.15;;;9.60;99.90;;;;;;10331514;28;21360;-62
2022/11/26 13:08:31;;;;;;;17.08;6.90;;;9.60;99.90;;;;;;10303436;28;20076;-69
2022/11/26 13:14:04;;;;;;;20.05;6.45;;;9.60;99.90;;;;;;10258655;28;20612;-68
2022/11/26 13:19:33;;;;;;;22.85;7.05;;;9.70;99.90;;;;;;10317068;28;20029;-65
2022/11/26 13:24:59;;;;;;;24.05;6.65;;;9.70;99.90;;;;;;10329920;28;20048;-68
2022/11/26 13:30:04;;;;;;;14.23;6.57;;;9.70;99.90;;;;;;10327346;28;20992;-64
2022/11/26 13:35:16;;;;;;;13.45;5.63;;;9.40;99.90;;;;;;10329747;28;20037;-63
2022/11/26 13:40:32;;;;;;;12.45;5.55;;;9.70;99.90;;;;;;10351009;28;20542;-71
2022/11/26 13:45:49;;;;;;;12.93;5.70;;;9.70;99.90;;;;;;10343162;28;20408;-63
2022/11/26 13:50:58;;;;;;;12.27;5.70;;;9.80;99.90;;;;;;10338599;28;21069;-72
2022/11/26 13:56:04;;;;;;;12.75;4.88;;;9.80;99.90;;;;;;10332889;28;20052;-63
2022/11/26 14:01:27;;;;;;;15.45;5.90;;;9.80;99.90;;;;;;10327566;28;20532;-63
2022/11/26 14:06:28;;;;;;;14.38;5.55;;;9.80;99.90;;;;;;10334581;28;20036;-63
2022/11/26 14:11:44;;;;;;;13.55;5.45;;;9.80;99.90;;;;;;10337237;28;20322;-63
2022/11/26 14:17:00;;;;;;;9.95;4.80;;;9.80;99.90;;;;;;10330850;28;20369;-63
2022/11/26 14:22:02;;;;;;;11.10;5.72;;;9.30;99.90;;;;;;10328939;28;20041;-67
2022/11/26 14:27:03;;;;;;;18.30;5.90;;;9.80;99.90;;;;;;10323150;28;20414;-63
2022/11/26 14:32:10;;;;;;;10.82;5.32;;;9.80;99.90;;;;;;10338119;28;20211;-68
2022/11/26 14:37:14;;;;;;;9.75;4.95;;;9.80;99.90;;;;;;10327455;28;20058;-69
2022/11/26 14:42:16;;;;;;;14.48;6.35;;;9.80;99.90;;;;;;10340829;28;20144;-61
2022/11/26 14:47:19;;;;;;;13.07;6.32;;;9.20;99.90;;;;;;10345714;28;20609;-65
2022/11/26 14:52:27;;;;;;;16.55;6.38;;;9.60;99.90;;;;;;10332272;28;20474;-62
2022/11/26 14:57:39;;;;;;;13.88;5.70;;;9.50;99.90;;;;;;10336580;28;20030;-60
2022/11/26 15:02:44;;;;;;;15.45;5.70;;;9.50;99.90;;;;;;10332037;28;20751;-60
2022/11/26 15:07:46;;;;;;;13.73;6.43;;;9.60;99.90;;;;;;10328155;28;20094;-71
2022/11/26 15:12:49;;;;;;;15.73;5.60;;;9.60;99.90;;;;;;10338414;28;20047;-60
2022/11/26 15:17:57;;;;;;;15.68;5.43;;;9.70;99.90;;;;;;10334838;28;20040;-59
2022/11/26 15:23:00;;;;;;;13.00;5.43;;;9.70;99.90;;;;;;10336298;28;20083;-60
2022/11/26 15:28:03;;;;;;;13.38;5.03;;;9.70;99.90;;;;;;10327634;28;20417;-59
2022/11/26 15:33:07;;;;;;;16.33;5.22;;;9.80;99.90;;;;;;10333058;28;20037;-61
2022/11/26 15:38:17;;;;;;;9.65;5.07;;;9.80;99.90;;;;;;10326573;28;20533;-61
2022/11/26 15:43:33;;;;;;;14.55;5.22;;;9.80;99.90;;;;;;10335526;28;20037;-64
2022/11/26 15:48:42;;;;;;;12.30;4.85;;;9.80;99.90;;;;;;10336458;28;20464;-61
2022/11/26 15:53:46;;;;;;;10.68;5.15;;;9.30;99.90;;;;;;10326334;28;20250;-61
2022/11/26 15:59:17;;;;;;;13.43;4.97;;;9.80;99.90;;;;;;10343130;28;20364;-68
2022/11/26 16:04:47;;;;;;;13.63;5.30;;;9.90;99.90;;;;;;10408474;28;20079;-69
2022/11/26 16:09:50;;;;;;;13.43;4.93;;;9.60;99.90;;;;;;10421105;28;20021;-61
2022/11/26 16:14:51;;;;;;;14.65;5.07;;;9.70;99.90;;;;;;10415156;28;20481;-62
2022/11/26 16:19:57;;;;;;;15.90;5.18;;;9.70;99.90;;;;;;10417003;28;20029;-68
2022/11/26 16:25:17;;;;;;;10.30;5.00;;;9.80;99.90;;;;;;10422175;28;20122;-67
2022/11/26 16:30:18;;;;;;;15.57;6.07;;;9.70;99.90;;;;;;10417847;28;20025;-65
2022/11/26 16:35:19;;;;;;;14.07;6.28;;;9.70;99.90;;;;;;10409899;28;20479;-61
2022/11/26 16:40:20;;;;;;;12.43;5.47;;;10.10;99.90;;;;;;10408304;28;20079;-66
2022/11/26 16:45:21;;;;;;;11.40;5.78;;;10.00;99.90;;;;;;10400251;28;20053;-62
2022/11/26 16:50:26;;;;;;;11.50;5.15;;;10.00;99.90;;;;;;10407878;28;20506;-61
2022/11/26 16:55:28;;;;;;;14.38;5.60;;;9.90;99.90;;;;;;10410077;28;20072;-61
2022/11/26 17:00:28;;;;;;;15.80;6.15;;;9.80;99.90;;;;;;10395399;28;20160;-62
2022/11/26 17:05:29;;;;;;;16.13;6.03;;;9.80;99.90;;;;;;10404802;28;20068;-62
2022/11/26 17:10:30;;;;;;;20.50;6.90;;;9.70;99.90;;;;;;10411529;28;20501;-64
2022/11/26 17:15:31;;;;;;;15.13;5.57;;;9.70;99.90;;;;;;10402608;28;20544;-61
2022/11/26 17:20:31;;;;;;;13.48;5.15;;;9.60;99.90;;;;;;10401152;28;20033;-64
2022/11/26 17:25:33;;;;;;;12.63;5.32;;;9.70;99.90;;;;;;10401613;28;20073;-67
2022/11/26 17:30:34;;;;;;;14.63;5.30;;;9.70;99.90;;;;;;10397482;28;20116;-67
2022/11/26 17:35:35;;;;;;;14.88;5.68;;;9.70;99.90;;;;;;10391956;28;20037;-67
2022/11/26 17:40:36;;;;;;;10.00;4.72;;;9.60;99.90;;;;;;10392089;28;20053;-66
2022/11/26 17:45:37;;;;;;;14.30;4.63;;;9.70;99.90;;;;;;10384137;28;20196;-67
2022/11/26 17:50:41;;;;;;;10.45;4.68;;;9.70;99.90;;;;;;10388593;28;20029;-69
2022/11/26 17:55:42;;;;;;;17.73;4.80;;;9.60;99.90;;;;;;10386797;28;20021;-68
2022/11/26 18:00:43;;;;;;;12.10;4.70;;;9.60;99.90;;;;;;10409815;28;20474;-63
2022/11/26 18:05:43;;;;;;;10.65;5.05;;;9.60;99.90;;;;;;10401145;28;20496;-66
2022/11/26 18:10:45;;;;;;;10.98;4.18;;;9.60;99.90;;;;;;10407602;28;20049;-67
2022/11/26 18:15:46;;;;;;;8.98;4.30;;;9.60;99.90;;;;;;10411958;28;20056;-67
2022/11/26 18:20:47;;;;;;;13.88;4.60;;;9.60;99.90;;;;;;10406895;28;20060;-65
2022/11/26 18:25:48;;;;;;;10.23;4.07;;;9.60;99.90;;;;;;10417446;28;20048;-66
2022/11/26 18:30:48;;;;;;;8.02;3.90;;;9.60;99.90;;;;;;10413610;28;20262;-67
2022/11/26 18:35:49;;;;;;;10.32;4.07;;;9.60;99.90;;;;;;10404203;28;20413;-63
2022/11/26 18:41:02;;;;;;;11.57;4.38;;;9.60;99.90;;;;;;10412590;28;20021;-64
2022/11/26 18:46:04;;;;;;;8.68;3.55;;;9.60;99.90;;;;;;10413671;28;20137;-67
2022/11/26 18:51:06;;;;;;;9.10;4.10;;;9.60;99.90;;;;;;10402290;28;20242;-69
2022/11/26 18:56:09;;;;;;;15.15;4.22;;;9.50;99.90;;;;;;10398226;28;20494;-66
2022/11/26 19:01:14;;;;;;;9.77;3.95;;;9.50;99.90;;;;;;10398141;28;20055;-63
2022/11/26 19:06:18;;;;;;;8.05;4.20;;;9.50;99.90;;;;;;10405096;28;20338;-68
2022/11/26 19:11:21;;;;;;;6.22;3.25;;;9.50;99.90;;;;;;10409440;28;20486;-69
2022/11/26 19:16:23;;;;;;;11.13;3.80;;;9.50;99.90;;;;;;10405325;28;20109;-63
2022/11/26 19:21:27;;;;;;;10.02;3.67;;;9.50;99.90;;;;;;10409730;28;20018;-62
2022/11/26 19:26:28;;;;;;;9.55;3.55;;;9.50;99.90;;;;;;10406676;28;20053;-62
2022/11/26 19:31:33;;;;;;;10.57;3.97;;;9.50;99.90;;;;;;10405801;28;20026;-64
2022/11/26 19:36:34;;;;;;;9.20;3.53;;;9.50;99.90;;;;;;10410337;28;20053;-63
2022/11/26 19:41:35;;;;;;;10.18;3.38;;;9.50;99.90;;;;;;10406693;28;20130;-66
2022/11/26 19:46:39;;;;;;;11.70;3.30;;;9.50;99.90;;;;;;10411067;28;20371;-63
2022/11/26 19:51:40;;;;;;;12.60;3.92;;;9.50;99.90;;;;;;10390314;28;20044;-62
2022/11/26 19:56:41;;;;;;;11.80;4.10;;;9.50;99.90;;;;;;10406510;28;20069;-65
2022/11/26 20:01:43;;;;;;;11.00;3.75;;;9.50;99.90;;;;;;10408555;28;20033;-63
2022/11/26 20:06:43;;;;;;;14.73;3.13;;;9.50;99.90;;;;;;10406546;28;20180;-62
2022/11/26 20:11:44;;;;;;;6.93;3.17;;;9.50;99.90;;;;;;10393432;28;20264;-62
2022/11/26 20:16:45;;;;;;;6.85;2.63;;;9.50;99.90;;;;;;10408556;28;20044;-62
2022/11/26 20:21:48;;;;;;;6.10;2.83;;;9.50;99.90;;;;;;10409578;28;20045;-63
2022/11/26 20:26:49;;;;;;;8.00;3.30;;;9.50;99.90;;;;;;10407253;28;20041;-62
2022/11/26 20:31:51;;;;;;;8.55;3.30;;;9.70;99.90;;;;;;10412538;28;20316;-65
2022/11/26 20:36:52;;;;;;;11.05;3.00;;;9.50;99.90;;;;;;10408723;28;20021;-62
2022/11/26 20:41:53;;;;;;;7.65;2.90;;;9.60;99.90;;;;;;10400937;28;20029;-66
2022/11/26 20:46:55;;;;;;;9.50;3.08;;;9.50;99.90;;;;;;10400146;28;20040;-62
2022/11/26 20:51:56;;;;;;;6.80;2.55;;;9.50;99.90;;;;;;10410740;28;20283;-62
2022/11/26 20:56:57;;;;;;;5.72;2.78;;;9.50;99.90;;;;;;10407620;28;20025;-62
2022/11/26 21:01:58;;;;;;;7.22;2.80;;;9.50;99.90;;;;;;10402032;28;20052;-67
2022/11/26 21:06:58;;;;;;;9.75;3.60;;;9.50;99.90;;;;;;10381466;28;20813;-69
2022/11/26 21:11:59;;;;;;;9.05;3.10;;;9.50;99.90;;;;;;10390250;28;20030;-66
2022/11/26 21:17:00;;;;;;;9.23;3.42;;;9.50;99.90;;;;;;10391203;28;20051;-66
2022/11/26 21:22:01;;;;;;;6.78;2.83;;;9.50;99.90;;;;;;10405761;28;20261;-65
2022/11/26 21:27:02;;;;;;;8.75;3.10;;;9.50;99.90;;;;;;10404381;28;20417;-67
2022/11/26 21:32:03;;;;;;;9.68;3.05;;;9.50;99.90;;;;;;10403886;28;20036;-68
2022/11/26 21:37:03;;;;;;;8.82;2.70;;;9.50;99.90;;;;;;10401173;28;20068;-66
2022/11/26 21:42:04;;;;;;;5.47;2.90;;;9.50;99.90;;;;;;10403627;28;20681;-67
2022/11/26 21:47:05;;;;;;;9.10;3.15;;;9.50;99.90;;;;;;10408408;28;20386;-63
2022/11/26 21:52:06;;;;;;;9.65;3.35;;;9.50;99.90;;;;;;10404020;28;20021;-63
2022/11/26 21:57:06;;;;;;;9.90;3.28;;;9.50;99.90;;;;;;10393449;28;20135;-66
2022/11/26 22:02:10;;;;;;;9.98;2.83;;;9.50;99.90;;;;;;10401546;28;20049;-68
2022/11/26 22:07:11;;;;;;;7.72;3.20;;;9.50;99.90;;;;;;10409812;28;20108;-65
2022/11/26 22:12:12;;;;;;;9.45;2.88;;;9.50;99.90;;;;;;10407589;28;20484;-63
2022/11/26 22:17:12;;;;;;;6.93;2.95;;;9.50;99.90;;;;;;10404939;28;20014;-63
2022/11/26 22:22:13;;;;;;;7.80;2.88;;;9.50;99.90;;;;;;10406792;28;20145;-63
2022/11/26 22:27:14;;;;;;;7.10;3.33;;;9.40;99.90;;;;;;10397368;28;20137;-63
2022/11/26 22:32:15;;;;;;;8.85;2.88;;;9.50;99.90;;;;;;10399600;28;20029;-62
2022/11/26 22:37:16;;;;;;;10.15;3.25;;;9.40;99.90;;;;;;10406571;28;20113;-65
2022/11/26 22:42:17;;;;;;;7.00;2.67;;;9.50;99.90;;;;;;10409766;28;20533;-62
2022/11/26 22:47:17;;;;;;;6.32;2.88;;;9.40;99.90;;;;;;10423290;28;20033;-62
2022/11/26 22:52:19;;;;;;;8.05;2.83;;;9.40;99.90;;;;;;10412625;28;20015;-63
2022/11/26 22:57:20;;;;;;;5.45;2.60;;;9.50;99.90;;;;;;10396303;28;20761;-62
2022/11/26 23:02:20;;;;;;;7.32;2.90;;;9.40;99.90;;;;;;10424237;28;20041;-62
2022/11/26 23:07:21;;;;;;;5.57;2.40;;;9.40;99.90;;;;;;10426543;28;20035;-62
2022/11/26 23:12:22;;;;;;;12.48;3.10;;;9.40;99.90;;;;;;10421545;28;20033;-66
2022/11/26 23:17:23;;;;;;;13.48;3.15;;;9.40;99.90;;;;;;10425661;28;20075;-62
2022/11/26 23:22:23;;;;;;;6.07;2.97;;;9.30;99.90;;;;;;10410459;28;20025;-63
2022/11/26 23:27:24;;;;;;;8.25;2.55;;;9.30;99.90;;;;;;10427376;28;20046;-64
2022/11/26 23:32:25;;;;;;;11.68;3.20;;;9.40;99.90;;;;;;10430869;28;20486;-64
2022/11/26 23:37:26;;;;;;;6.22;2.67;;;9.30;99.90;;;;;;10487175;22;20052;-62
2022/11/26 23:42:27;;;;;;;5.60;2.40;;;9.30;99.90;;;;;;10464846;28;20072;-63
2022/11/26 23:47:27;;;;;;;10.38;2.90;;;9.30;99.90;;;;;;10467869;28;20021;-64
2022/11/26 23:52:28;;;;;;;6.25;3.35;;;9.30;99.90;;;;;;10459553;28;20033;-65
2022/11/26 23:57:29;;;;;;;7.90;3.30;;;9.30;99.90;;;;;;10470847;28;20434;-64
